Terminal Aerodrome Forecast
Issued by NWS

Home | Current Version | Previous Version | Text Only | Print | Product List | Glossary On
Versions: 1 2 3 4 5 6 7 8 9 10 11 12 13 14 15 16 17
000
FTUS41 KBOX 261120
TAFBAF
TAF
KBAF 261120Z 2612/2712 02010KT 2SM -RA BR OVC006
     FM261400 02006KT 4SM -RA BR OVC008
     FM261700 02005KT P6SM VCSH OVC008
     FM262000 02005KT P6SM VCSH OVC010
     FM270000 02004KT 4SM BR OVC010
     FM270400 VRB03KT 3SM -DZ BR OVC010=

USA.gov is the U.S. government's official web portal to all federal, state and local government web resources and services.